TC0112 CYYZ-TXKF
Flight info
| Callsign | TC0112 |
|---|---|
| Flight time | 2h 19m |
| Altitude | 38000 |
| Route | KEPTA3 BMPAH DCT AEVON DCT EXTOL Q140 ARRKK DCT JFK DCT SHIPP Y492 SQUAD/M078F380 DCT DARUX L459 DASER MOMOM1 |
| Aircraft | A20N/M-SDE2E3FGHIRWXY/LB1 |
Departure
| Time | 2026-05-04 22:07 |
|---|---|
| Airport | Toronto Pearson International Airport (CYYZ) |
Arrival
| Time | 2026-05-05 00:26 |
|---|---|
| Airport | L.F. Wade International Airport (TXKF) |
| Time | Latitude | Longitude | Altitude | Speed | Heading |
|---|---|---|---|---|---|
| 2026-05-04 20:57 | 43.68170 | -79.61975 | 569 ft | 0 kts | 345° |
| 2026-05-04 21:51 | 43.68167 | -79.61974 | 563 ft | 2 kts | 343° |
| 2026-05-04 21:51 | 43.68166 | -79.61974 | 563 ft | 0 kts | 342° |
| 2026-05-04 21:52 | 43.68163 | -79.61972 | 563 ft | 2 kts | 339° |
| 2026-05-04 21:52 | 43.68151 | -79.61965 | 569 ft | 2 kts | 329° |
| 2026-05-04 21:52 | 43.68141 | -79.61956 | 569 ft | 2 kts | 316° |
| 2026-05-04 21:52 | 43.68132 | -79.61942 | 571 ft | 2 kts | 301° |
| 2026-05-04 21:53 | 43.68126 | -79.61927 | 567 ft | 2 kts | 287° |
| 2026-05-04 21:53 | 43.68123 | -79.61909 | 567 ft | 2 kts | 272° |
| 2026-05-04 21:53 | 43.68124 | -79.61892 | 563 ft | 2 kts | 257° |
| 2026-05-04 21:53 | 43.68127 | -79.61875 | 563 ft | 2 kts | 242° |
| 2026-05-04 21:54 | 43.68129 | -79.61871 | 563 ft | 0 kts | 239° |
| 2026-05-04 22:00 | 43.68128 | -79.61873 | 563 ft | 2 kts | 239° |
| 2026-05-04 22:00 | 43.68111 | -79.61912 | 569 ft | 7 kts | 239° |
| 2026-05-04 22:00 | 43.68083 | -79.61973 | 568 ft | 1 kts | 227° |
| 2026-05-04 22:00 | 43.68078 | -79.61976 | 566 ft | 3 kts | 211° |
| 2026-05-04 22:01 | 43.68026 | -79.62009 | 565 ft | 14 kts | 202° |
| 2026-05-04 22:01 | 43.67914 | -79.62105 | 560 ft | 22 kts | 222° |
| 2026-05-04 22:01 | 43.67819 | -79.62108 | 566 ft | 12 kts | 131° |
| 2026-05-04 22:01 | 43.67760 | -79.62019 | 565 ft | 13 kts | 132° |
| 2026-05-04 22:02 | 43.67690 | -79.61933 | 569 ft | 14 kts | 143° |
| 2026-05-04 22:02 | 43.67611 | -79.61839 | 572 ft | 15 kts | 138° |
| 2026-05-04 22:02 | 43.67528 | -79.61735 | 571 ft | 17 kts | 135° |
| 2026-05-04 22:02 | 43.67434 | -79.61606 | 570 ft | 20 kts | 136° |
| 2026-05-04 22:03 | 43.67326 | -79.61464 | 562 ft | 23 kts | 137° |
| 2026-05-04 22:03 | 43.67230 | -79.61301 | 559 ft | 19 kts | 78° |
| 2026-05-04 22:03 | 43.67304 | -79.61134 | 565 ft | 22 kts | 52° |
| 2026-05-04 22:03 | 43.67396 | -79.60970 | 565 ft | 22 kts | 52° |
| 2026-05-04 22:04 | 43.67493 | -79.60796 | 569 ft | 23 kts | 52° |
| 2026-05-04 22:04 | 43.67604 | -79.60648 | 571 ft | 22 kts | 47° |
| 2026-05-04 22:04 | 43.67713 | -79.60487 | 572 ft | 23 kts | 47° |
| 2026-05-04 22:04 | 43.67830 | -79.60311 | 572 ft | 26 kts | 47° |
| 2026-05-04 22:05 | 43.67961 | -79.60120 | 573 ft | 29 kts | 44° |
| 2026-05-04 22:05 | 43.68072 | -79.59943 | 569 ft | 12 kts | 81° |
| 2026-05-04 22:05 | 43.68076 | -79.59883 | 570 ft | 2 kts | 120° |
| 2026-05-04 22:05 | 43.68055 | -79.59850 | 571 ft | 8 kts | 130° |
| 2026-05-04 22:06 | 43.68004 | -79.59785 | 577 ft | 12 kts | 142° |
| 2026-05-04 22:06 | 43.67922 | -79.59724 | 577 ft | 15 kts | 184° |
| 2026-05-04 22:06 | 43.67872 | -79.59775 | 577 ft | 20 kts | 227° |
| 2026-05-04 22:06 | 43.67583 | -79.60199 | 578 ft | 97 kts | 227° |
| 2026-05-04 22:07 | 43.66999 | -79.61035 | 722 ft | 137 kts | 225° |
| 2026-05-04 22:07 | 43.66323 | -79.61903 | 1556 ft | 136 kts | 220° |
| 2026-05-04 22:07 | 43.65603 | -79.62783 | 2322 ft | 141 kts | 222° |
| 2026-05-04 22:07 | 43.64848 | -79.63671 | 3132 ft | 144 kts | 220° |
| 2026-05-04 22:08 | 43.64060 | -79.64551 | 3969 ft | 147 kts | 221° |
| 2026-05-04 22:08 | 43.63294 | -79.65548 | 4590 ft | 158 kts | 230° |
| 2026-05-04 22:08 | 43.62514 | -79.66740 | 5014 ft | 177 kts | 230° |
| 2026-05-04 22:08 | 43.61645 | -79.68074 | 5399 ft | 199 kts | 230° |
| 2026-05-04 22:09 | 43.60674 | -79.69568 | 5832 ft | 220 kts | 230° |
| 2026-05-04 22:09 | 43.59598 | -79.71216 | 6253 ft | 241 kts | 230° |
| 2026-05-04 22:09 | 43.58479 | -79.72933 | 6644 ft | 244 kts | 230° |
| 2026-05-04 22:09 | 43.57318 | -79.74700 | 7038 ft | 247 kts | 230° |
| 2026-05-04 22:10 | 43.56132 | -79.76415 | 7418 ft | 248 kts | 222° |
| 2026-05-04 22:10 | 43.54592 | -79.77535 | 7823 ft | 259 kts | 198° |
| 2026-05-04 22:10 | 43.52747 | -79.77527 | 8238 ft | 277 kts | 171° |
| 2026-05-04 22:10 | 43.50992 | -79.76301 | 8650 ft | 296 kts | 145° |
| 2026-05-04 22:11 | 43.49729 | -79.73983 | 9444 ft | 311 kts | 117° |
| 2026-05-04 22:11 | 43.49242 | -79.71049 | 10194 ft | 323 kts | 93° |
| 2026-05-04 22:11 | 43.49483 | -79.67875 | 10516 ft | 346 kts | 80° |
| 2026-05-04 22:11 | 43.49897 | -79.64494 | 10749 ft | 368 kts | 83° |
| 2026-05-04 22:12 | 43.50153 | -79.60931 | 11266 ft | 378 kts | 85° |
| 2026-05-04 22:12 | 43.50551 | -79.57323 | 11996 ft | 383 kts | 78° |
| 2026-05-04 22:12 | 43.51223 | -79.53790 | 12684 ft | 389 kts | 74° |
| 2026-05-04 22:12 | 43.51945 | -79.50175 | 13387 ft | 394 kts | 75° |
| 2026-05-04 22:13 | 43.52633 | -79.46503 | 14038 ft | 397 kts | 79° |
| 2026-05-04 22:13 | 43.52815 | -79.42715 | 14692 ft | 397 kts | 97° |
| 2026-05-04 22:13 | 43.52187 | -79.39048 | 15378 ft | 393 kts | 115° |
| 2026-05-04 22:13 | 43.51111 | -79.35503 | 15971 ft | 398 kts | 116° |
| 2026-05-04 22:14 | 43.50037 | -79.32022 | 16574 ft | 402 kts | 116° |
| 2026-05-04 22:14 | 43.48926 | -79.28415 | 17200 ft | 407 kts | 116° |
| 2026-05-04 22:14 | 43.47832 | -79.24856 | 17799 ft | 411 kts | 116° |
| 2026-05-04 22:14 | 43.46713 | -79.21211 | 18339 ft | 415 kts | 115° |
| 2026-05-04 22:15 | 43.45585 | -79.17534 | 18856 ft | 419 kts | 115° |
| 2026-05-04 22:15 | 43.44444 | -79.13817 | 19368 ft | 424 kts | 115° |
| 2026-05-04 22:15 | 43.43290 | -79.10067 | 19883 ft | 428 kts | 115° |
| 2026-05-04 22:15 | 43.42118 | -79.06284 | 20381 ft | 432 kts | 115° |
| 2026-05-04 22:16 | 43.40932 | -79.02468 | 20859 ft | 436 kts | 115° |
| 2026-05-04 22:16 | 43.39732 | -78.98615 | 21356 ft | 440 kts | 115° |
| 2026-05-04 22:16 | 43.38523 | -78.94730 | 21837 ft | 444 kts | 115° |
| 2026-05-04 22:16 | 43.37697 | -78.92079 | 22166 ft | 447 kts | 115° |
| 2026-05-04 22:17 | 43.36465 | -78.88132 | 22658 ft | 451 kts | 115° |
| 2026-05-04 22:17 | 43.35224 | -78.84159 | 23129 ft | 455 kts | 115° |
| 2026-05-04 22:17 | 43.33969 | -78.80147 | 23558 ft | 458 kts | 115° |
| 2026-05-04 22:17 | 43.32708 | -78.76122 | 24005 ft | 460 kts | 115° |
| 2026-05-04 22:18 | 43.31453 | -78.72122 | 24428 ft | 463 kts | 115° |
| 2026-05-04 22:18 | 43.30159 | -78.68003 | 24861 ft | 465 kts | 115° |
| 2026-05-04 22:18 | 43.28870 | -78.63910 | 25266 ft | 468 kts | 114° |
| 2026-05-04 22:18 | 43.27577 | -78.59810 | 25672 ft | 470 kts | 114° |
| 2026-05-04 22:19 | 43.26280 | -78.55702 | 26057 ft | 472 kts | 114° |
| 2026-05-04 22:19 | 43.24969 | -78.51556 | 26432 ft | 474 kts | 114° |
| 2026-05-04 22:19 | 43.23670 | -78.47453 | 26842 ft | 476 kts | 114° |
| 2026-05-04 22:19 | 43.22329 | -78.43225 | 27212 ft | 478 kts | 114° |
| 2026-05-04 22:20 | 43.21016 | -78.39093 | 27574 ft | 480 kts | 114° |
| 2026-05-04 22:20 | 43.19637 | -78.34911 | 27927 ft | 482 kts | 118° |
| 2026-05-04 22:20 | 43.17933 | -78.30959 | 28259 ft | 482 kts | 127° |
| 2026-05-04 22:20 | 43.15885 | -78.27325 | 28584 ft | 483 kts | 132° |
| 2026-05-04 22:21 | 43.13747 | -78.23769 | 28915 ft | 485 kts | 131° |
| 2026-05-04 22:21 | 43.11602 | -78.20185 | 29220 ft | 487 kts | 131° |
| 2026-05-04 22:21 | 43.09454 | -78.16594 | 29528 ft | 489 kts | 131° |
| 2026-05-04 22:21 | 43.07295 | -78.12984 | 29829 ft | 491 kts | 131° |
| 2026-05-04 22:22 | 43.05129 | -78.09367 | 30086 ft | 493 kts | 131° |
| 2026-05-04 22:22 | 43.02950 | -78.05732 | 30340 ft | 495 kts | 131° |
| 2026-05-04 22:22 | 43.00896 | -78.02312 | 30584 ft | 497 kts | 131° |
| 2026-05-04 22:22 | 42.98703 | -77.98664 | 30864 ft | 498 kts | 131° |
| 2026-05-04 22:23 | 42.96507 | -77.95015 | 31212 ft | 498 kts | 131° |
| 2026-05-04 22:23 | 42.94306 | -77.91356 | 31501 ft | 499 kts | 130° |
| 2026-05-04 22:23 | 42.92344 | -77.87464 | 31832 ft | 500 kts | 120° |
| 2026-05-04 22:23 | 42.90815 | -77.83206 | 32138 ft | 500 kts | 111° |
| 2026-05-04 22:24 | 42.89750 | -77.78704 | 32439 ft | 499 kts | 104° |
| 2026-05-04 22:24 | 42.88853 | -77.74135 | 32761 ft | 499 kts | 104° |
| 2026-05-04 22:24 | 42.87951 | -77.69584 | 33077 ft | 498 kts | 104° |
| 2026-05-04 22:24 | 42.87041 | -77.65031 | 33379 ft | 498 kts | 104° |
| 2026-05-04 22:25 | 42.86125 | -77.60478 | 33676 ft | 497 kts | 104° |
| 2026-05-04 22:25 | 42.85211 | -77.55945 | 33972 ft | 496 kts | 103° |
| 2026-05-04 22:25 | 42.84296 | -77.51418 | 34237 ft | 495 kts | 104° |
| 2026-05-04 22:25 | 42.83381 | -77.46902 | 34468 ft | 494 kts | 104° |
| 2026-05-04 22:26 | 42.82465 | -77.42389 | 34699 ft | 494 kts | 104° |
| 2026-05-04 22:26 | 42.81550 | -77.37892 | 34919 ft | 494 kts | 104° |
| 2026-05-04 22:26 | 42.80630 | -77.33380 | 35138 ft | 493 kts | 104° |
| 2026-05-04 22:26 | 42.79749 | -77.29070 | 35326 ft | 493 kts | 104° |
| 2026-05-04 22:27 | 42.78807 | -77.24471 | 35545 ft | 493 kts | 104° |
| 2026-05-04 22:27 | 42.77885 | -77.19980 | 35723 ft | 493 kts | 104° |
| 2026-05-04 22:27 | 42.76962 | -77.15489 | 35896 ft | 493 kts | 104° |
| 2026-05-04 22:27 | 42.76037 | -77.10999 | 36087 ft | 492 kts | 104° |
| 2026-05-04 22:28 | 42.75121 | -77.06562 | 36260 ft | 492 kts | 104° |
| 2026-05-04 22:28 | 42.74193 | -77.02081 | 36424 ft | 492 kts | 104° |
| 2026-05-04 22:28 | 42.73271 | -76.97635 | 36597 ft | 492 kts | 104° |
| 2026-05-04 22:28 | 42.72345 | -76.93183 | 36750 ft | 492 kts | 105° |
| 2026-05-04 22:29 | 42.71412 | -76.88711 | 36904 ft | 492 kts | 105° |
| 2026-05-04 22:29 | 42.70479 | -76.84245 | 37060 ft | 492 kts | 104° |
| 2026-05-04 22:29 | 42.69542 | -76.79773 | 37192 ft | 492 kts | 105° |
| 2026-05-04 22:29 | 42.68604 | -76.75300 | 37346 ft | 492 kts | 105° |
| 2026-05-04 22:30 | 42.67666 | -76.70837 | 37473 ft | 492 kts | 105° |
| 2026-05-04 22:30 | 42.66699 | -76.66379 | 37586 ft | 492 kts | 108° |
| 2026-05-04 22:30 | 42.65481 | -76.62031 | 37717 ft | 492 kts | 114° |
| 2026-05-04 22:30 | 42.63975 | -76.57873 | 37841 ft | 492 kts | 120° |
| 2026-05-04 22:31 | 42.62218 | -76.53898 | 37987 ft | 490 kts | 122° |
| 2026-05-04 22:31 | 42.60436 | -76.49954 | 38114 ft | 490 kts | 122° |
| 2026-05-04 22:31 | 42.58664 | -76.46010 | 38103 ft | 489 kts | 122° |
| 2026-05-04 22:32 | 42.55150 | -76.38186 | 38103 ft | 489 kts | 122° |
| 2026-05-04 22:32 | 42.51578 | -76.30261 | 38112 ft | 489 kts | 122° |
| 2026-05-04 22:33 | 42.48084 | -76.22532 | 38120 ft | 489 kts | 122° |
| 2026-05-04 22:33 | 42.44572 | -76.14782 | 38123 ft | 489 kts | 122° |
| 2026-05-04 22:34 | 42.41059 | -76.07052 | 38146 ft | 489 kts | 122° |
| 2026-05-04 22:34 | 42.37561 | -75.99373 | 38145 ft | 488 kts | 122° |
| 2026-05-04 22:35 | 42.34012 | -75.91601 | 38139 ft | 488 kts | 122° |
| 2026-05-04 22:35 | 42.30446 | -75.83814 | 38026 ft | 485 kts | 122° |
| 2026-05-04 22:35 | 42.28673 | -75.79951 | 37899 ft | 484 kts | 122° |
| 2026-05-04 22:36 | 42.26895 | -75.76080 | 37902 ft | 487 kts | 122° |
| 2026-05-04 22:36 | 42.23307 | -75.68283 | 37898 ft | 490 kts | 122° |
| 2026-05-04 22:37 | 42.19719 | -75.60504 | 37798 ft | 486 kts | 122° |
| 2026-05-04 22:37 | 42.16128 | -75.52738 | 37801 ft | 490 kts | 122° |
| 2026-05-04 22:38 | 42.12515 | -75.44946 | 37839 ft | 490 kts | 122° |
| 2026-05-04 22:38 | 42.08892 | -75.37189 | 37839 ft | 490 kts | 124° |
| 2026-05-04 22:39 | 42.04649 | -75.30130 | 37851 ft | 488 kts | 136° |
| 2026-05-04 22:39 | 41.99555 | -75.24131 | 37852 ft | 487 kts | 142° |
| 2026-05-04 22:40 | 41.94324 | -75.18354 | 37847 ft | 487 kts | 142° |
| 2026-05-04 22:40 | 41.89085 | -75.12558 | 37862 ft | 488 kts | 142° |
| 2026-05-04 22:41 | 41.83844 | -75.06773 | 37818 ft | 486 kts | 142° |
| 2026-05-04 22:41 | 41.78654 | -75.01055 | 37862 ft | 482 kts | 142° |
| 2026-05-04 22:42 | 41.73453 | -74.95345 | 37856 ft | 483 kts | 143° |
| 2026-05-04 22:42 | 41.68254 | -74.89649 | 37857 ft | 483 kts | 143° |
| 2026-05-04 22:43 | 41.63050 | -74.83957 | 37858 ft | 483 kts | 143° |
| 2026-05-04 22:43 | 41.57850 | -74.78281 | 37863 ft | 482 kts | 143° |
| 2026-05-04 22:44 | 41.52649 | -74.72618 | 37862 ft | 482 kts | 143° |
| 2026-05-04 22:44 | 41.47451 | -74.66970 | 37870 ft | 482 kts | 143° |
| 2026-05-04 22:45 | 41.42254 | -74.61333 | 37865 ft | 481 kts | 143° |
| 2026-05-04 22:45 | 41.34457 | -74.52901 | 37854 ft | 480 kts | 143° |
| 2026-05-04 22:46 | 41.29302 | -74.47340 | 37859 ft | 480 kts | 143° |
| 2026-05-04 22:46 | 41.24106 | -74.41747 | 37856 ft | 481 kts | 143° |
| 2026-05-04 22:47 | 41.18911 | -74.36167 | 37866 ft | 481 kts | 143° |
| 2026-05-04 22:47 | 41.13716 | -74.30598 | 37872 ft | 479 kts | 143° |
| 2026-05-04 22:48 | 41.08522 | -74.25042 | 37889 ft | 478 kts | 143° |
| 2026-05-04 22:48 | 41.03347 | -74.19517 | 37884 ft | 478 kts | 143° |
| 2026-05-04 22:49 | 40.98162 | -74.13995 | 37892 ft | 478 kts | 143° |
| 2026-05-04 22:49 | 40.92978 | -74.08485 | 37896 ft | 478 kts | 143° |
| 2026-05-04 22:50 | 40.87783 | -74.02975 | 37881 ft | 478 kts | 143° |
| 2026-05-04 22:50 | 40.82601 | -73.97488 | 37877 ft | 476 kts | 143° |
| 2026-05-04 22:51 | 40.77439 | -73.92036 | 37895 ft | 476 kts | 143° |
| 2026-05-04 22:51 | 40.72264 | -73.86580 | 37894 ft | 476 kts | 143° |
| 2026-05-04 22:52 | 40.67092 | -73.81140 | 37932 ft | 476 kts | 143° |
| 2026-05-04 22:52 | 40.62275 | -73.75241 | 37930 ft | 479 kts | 132° |
| 2026-05-04 22:53 | 40.58183 | -73.68304 | 37941 ft | 480 kts | 128° |
| 2026-05-04 22:53 | 40.54166 | -73.61298 | 37935 ft | 480 kts | 128° |
| 2026-05-04 22:54 | 40.50124 | -73.54296 | 37946 ft | 481 kts | 128° |
| 2026-05-04 22:54 | 40.46077 | -73.47306 | 37955 ft | 481 kts | 129° |
| 2026-05-04 22:55 | 40.42020 | -73.40316 | 37961 ft | 481 kts | 129° |
| 2026-05-04 22:55 | 40.37953 | -73.33323 | 37974 ft | 482 kts | 129° |
| 2026-05-04 22:56 | 40.33866 | -73.26386 | 37964 ft | 479 kts | 132° |
| 2026-05-04 22:56 | 40.29220 | -73.20241 | 37970 ft | 473 kts | 141° |
| 2026-05-04 22:57 | 40.24341 | -73.14451 | 37975 ft | 473 kts | 140° |
| 2026-05-04 22:57 | 40.19477 | -73.08651 | 37983 ft | 473 kts | 140° |
| 2026-05-04 22:58 | 40.14610 | -73.02854 | 37989 ft | 473 kts | 140° |
| 2026-05-04 22:58 | 40.09738 | -72.97068 | 37990 ft | 473 kts | 140° |
| 2026-05-04 22:59 | 40.04862 | -72.91288 | 37984 ft | 474 kts | 141° |
| 2026-05-04 22:59 | 39.99974 | -72.85510 | 37986 ft | 474 kts | 141° |
| 2026-05-04 23:00 | 39.95081 | -72.79735 | 38006 ft | 475 kts | 141° |
| 2026-05-04 23:00 | 39.91014 | -72.74945 | 38006 ft | 475 kts | 141° |
| 2026-05-04 23:01 | 39.86120 | -72.69190 | 38016 ft | 476 kts | 141° |
| 2026-05-04 23:01 | 39.81211 | -72.63430 | 38016 ft | 476 kts | 141° |
| 2026-05-04 23:02 | 39.76289 | -72.57662 | 38005 ft | 477 kts | 142° |
| 2026-05-04 23:02 | 39.71348 | -72.51889 | 38017 ft | 478 kts | 142° |
| 2026-05-04 23:03 | 39.66398 | -72.46117 | 38023 ft | 479 kts | 142° |
| 2026-05-04 23:03 | 39.61435 | -72.40339 | 38037 ft | 480 kts | 142° |
| 2026-05-04 23:04 | 39.56461 | -72.34561 | 38047 ft | 480 kts | 142° |
| 2026-05-04 23:04 | 39.51476 | -72.28780 | 38040 ft | 480 kts | 142° |
| 2026-05-04 23:05 | 39.46495 | -72.23016 | 38045 ft | 482 kts | 142° |
| 2026-05-04 23:05 | 39.41478 | -72.17225 | 38044 ft | 483 kts | 142° |
| 2026-05-04 23:06 | 39.36471 | -72.11453 | 38050 ft | 483 kts | 143° |
| 2026-05-04 23:06 | 39.31556 | -72.05800 | 38053 ft | 483 kts | 143° |
| 2026-05-04 23:07 | 39.26533 | -72.00034 | 38053 ft | 483 kts | 143° |
| 2026-05-04 23:07 | 39.21511 | -71.94281 | 38062 ft | 483 kts | 143° |
| 2026-05-04 23:08 | 39.16481 | -71.88530 | 38051 ft | 483 kts | 143° |
| 2026-05-04 23:08 | 39.11453 | -71.82792 | 38057 ft | 483 kts | 143° |
| 2026-05-04 23:09 | 39.06416 | -71.77058 | 38055 ft | 483 kts | 143° |
| 2026-05-04 23:09 | 39.01411 | -71.71369 | 38035 ft | 483 kts | 143° |
| 2026-05-04 23:10 | 38.96338 | -71.65615 | 38060 ft | 483 kts | 143° |
| 2026-05-04 23:10 | 38.91330 | -71.59947 | 38063 ft | 483 kts | 143° |
| 2026-05-04 23:11 | 38.86280 | -71.54242 | 38069 ft | 484 kts | 143° |
| 2026-05-04 23:11 | 38.81310 | -71.48638 | 38077 ft | 484 kts | 143° |
| 2026-05-04 23:12 | 38.76239 | -71.42932 | 38077 ft | 485 kts | 143° |
| 2026-05-04 23:12 | 38.71180 | -71.37247 | 38075 ft | 483 kts | 144° |
| 2026-05-04 23:13 | 38.66125 | -71.31582 | 38082 ft | 483 kts | 144° |
| 2026-05-04 23:13 | 38.61066 | -71.25922 | 38099 ft | 483 kts | 144° |
| 2026-05-04 23:14 | 38.56007 | -71.20274 | 38082 ft | 483 kts | 144° |
| 2026-05-04 23:14 | 38.50941 | -71.14628 | 38098 ft | 483 kts | 144° |
| 2026-05-04 23:15 | 38.45876 | -71.08992 | 38091 ft | 482 kts | 144° |
| 2026-05-04 23:15 | 38.40819 | -71.03378 | 38093 ft | 482 kts | 144° |
| 2026-05-04 23:16 | 38.35754 | -70.97767 | 38105 ft | 482 kts | 144° |
| 2026-05-04 23:16 | 38.30685 | -70.92162 | 38101 ft | 482 kts | 144° |
| 2026-05-04 23:17 | 38.25612 | -70.86561 | 38110 ft | 482 kts | 145° |
| 2026-05-04 23:17 | 38.20544 | -70.80978 | 38112 ft | 482 kts | 145° |
| 2026-05-04 23:18 | 38.15499 | -70.75430 | 38097 ft | 482 kts | 145° |
| 2026-05-04 23:18 | 38.10430 | -70.69869 | 38101 ft | 482 kts | 145° |
| 2026-05-04 23:19 | 38.05359 | -70.64312 | 38104 ft | 482 kts | 145° |
| 2026-05-04 23:19 | 38.00149 | -70.59007 | 38116 ft | 477 kts | 153° |
| 2026-05-04 23:20 | 37.94471 | -70.54848 | 38116 ft | 468 kts | 161° |
| 2026-05-04 23:20 | 37.88829 | -70.51338 | 38118 ft | 468 kts | 161° |
| 2026-05-04 23:21 | 37.83442 | -70.47961 | 38118 ft | 469 kts | 161° |
| 2026-05-04 23:21 | 37.77857 | -70.44460 | 38135 ft | 469 kts | 161° |
| 2026-05-04 23:22 | 37.72021 | -70.40809 | 38135 ft | 470 kts | 161° |
| 2026-05-04 23:22 | 37.66348 | -70.37266 | 38141 ft | 469 kts | 161° |
| 2026-05-04 23:23 | 37.60491 | -70.33614 | 38155 ft | 469 kts | 161° |
| 2026-05-04 23:23 | 37.54639 | -70.29973 | 38156 ft | 469 kts | 161° |
| 2026-05-04 23:24 | 37.48780 | -70.26333 | 38163 ft | 469 kts | 161° |
| 2026-05-04 23:24 | 37.42920 | -70.22699 | 38131 ft | 469 kts | 161° |
| 2026-05-04 23:25 | 37.37115 | -70.19098 | 38152 ft | 460 kts | 162° |
| 2026-05-04 23:25 | 37.31412 | -70.15573 | 38163 ft | 457 kts | 162° |
| 2026-05-04 23:26 | 37.25683 | -70.12047 | 38166 ft | 459 kts | 162° |
| 2026-05-04 23:26 | 37.19953 | -70.08518 | 38168 ft | 458 kts | 162° |
| 2026-05-04 23:27 | 37.14235 | -70.05000 | 38166 ft | 457 kts | 163° |
| 2026-05-04 23:27 | 37.08523 | -70.01496 | 38175 ft | 457 kts | 163° |
| 2026-05-04 23:28 | 37.02811 | -69.97998 | 38182 ft | 459 kts | 163° |
| 2026-05-04 23:28 | 36.97030 | -69.94467 | 38182 ft | 465 kts | 163° |
| 2026-05-04 23:29 | 36.91175 | -69.90893 | 38161 ft | 471 kts | 163° |
| 2026-05-04 23:29 | 36.85267 | -69.87288 | 38185 ft | 474 kts | 163° |
| 2026-05-04 23:30 | 36.79323 | -69.83667 | 38186 ft | 476 kts | 163° |
| 2026-05-04 23:30 | 36.73368 | -69.80050 | 38185 ft | 477 kts | 163° |
| 2026-05-04 23:31 | 36.67398 | -69.76430 | 38191 ft | 478 kts | 163° |
| 2026-05-04 23:31 | 36.61618 | -69.72919 | 38188 ft | 460 kts | 163° |
| 2026-05-04 23:32 | 36.58792 | -69.71197 | 38194 ft | 447 kts | 164° |
| 2026-05-04 23:32 | 36.56007 | -69.69514 | 38194 ft | 446 kts | 164° |
| 2026-05-04 23:32 | 36.50384 | -69.66144 | 38199 ft | 452 kts | 164° |
| 2026-05-04 23:33 | 36.44711 | -69.62732 | 38199 ft | 453 kts | 164° |
| 2026-05-04 23:33 | 36.39048 | -69.59322 | 38177 ft | 451 kts | 164° |
| 2026-05-04 23:34 | 36.33440 | -69.55949 | 38194 ft | 447 kts | 164° |
| 2026-05-04 23:34 | 36.27823 | -69.52587 | 38175 ft | 448 kts | 164° |
| 2026-05-04 23:35 | 36.22244 | -69.49242 | 38201 ft | 444 kts | 165° |
| 2026-05-04 23:35 | 36.16703 | -69.45787 | 38206 ft | 452 kts | 159° |
| 2026-05-04 23:36 | 36.11505 | -69.41254 | 38203 ft | 458 kts | 152° |
| 2026-05-04 23:36 | 36.06499 | -69.36427 | 38207 ft | 457 kts | 153° |
| 2026-05-04 23:37 | 36.01461 | -69.31609 | 38207 ft | 458 kts | 153° |
| 2026-05-04 23:37 | 35.96426 | -69.26805 | 38207 ft | 457 kts | 153° |
| 2026-05-04 23:38 | 35.91388 | -69.22007 | 38210 ft | 457 kts | 153° |
| 2026-05-04 23:38 | 35.86393 | -69.17254 | 38210 ft | 454 kts | 153° |
| 2026-05-04 23:39 | 35.81448 | -69.12551 | 38214 ft | 447 kts | 154° |
| 2026-05-04 23:39 | 35.76501 | -69.07873 | 38213 ft | 449 kts | 154° |
| 2026-05-04 23:40 | 35.71552 | -69.03193 | 38208 ft | 449 kts | 154° |
| 2026-05-04 23:40 | 35.66628 | -68.98541 | 38216 ft | 449 kts | 154° |
| 2026-05-04 23:41 | 35.61727 | -68.93917 | 38213 ft | 449 kts | 154° |
| 2026-05-04 23:41 | 35.56778 | -68.89256 | 38171 ft | 448 kts | 154° |
| 2026-05-04 23:42 | 35.51866 | -68.84630 | 38207 ft | 442 kts | 155° |
| 2026-05-04 23:42 | 35.47011 | -68.80070 | 38215 ft | 439 kts | 155° |
| 2026-05-04 23:43 | 35.42144 | -68.75519 | 38216 ft | 440 kts | 155° |
| 2026-05-04 23:43 | 35.37281 | -68.70969 | 38215 ft | 440 kts | 155° |
| 2026-05-04 23:44 | 35.32414 | -68.66422 | 38219 ft | 440 kts | 155° |
| 2026-05-04 23:44 | 35.27549 | -68.61882 | 38202 ft | 438 kts | 155° |
| 2026-05-04 23:45 | 35.22694 | -68.57359 | 38213 ft | 438 kts | 155° |
| 2026-05-04 23:45 | 35.17841 | -68.52847 | 38185 ft | 438 kts | 155° |
| 2026-05-04 23:46 | 35.13028 | -68.48367 | 38218 ft | 432 kts | 156° |
| 2026-05-04 23:46 | 35.08226 | -68.43924 | 38221 ft | 434 kts | 156° |
| 2026-05-04 23:47 | 35.03419 | -68.39476 | 38221 ft | 434 kts | 156° |
| 2026-05-04 23:47 | 34.99425 | -68.35783 | 38178 ft | 433 kts | 156° |
| 2026-05-04 23:48 | 34.94645 | -68.31368 | 38223 ft | 432 kts | 156° |
| 2026-05-04 23:48 | 34.89845 | -68.26946 | 38222 ft | 433 kts | 156° |
| 2026-05-04 23:49 | 34.85040 | -68.22524 | 38222 ft | 433 kts | 156° |
| 2026-05-04 23:49 | 34.80231 | -68.18102 | 38203 ft | 431 kts | 156° |
| 2026-05-04 23:50 | 34.75476 | -68.13733 | 38220 ft | 428 kts | 156° |
| 2026-05-04 23:50 | 34.70705 | -68.09368 | 38189 ft | 429 kts | 156° |
| 2026-05-04 23:51 | 34.65934 | -68.05004 | 38224 ft | 430 kts | 156° |
| 2026-05-04 23:51 | 34.61158 | -68.00640 | 38224 ft | 429 kts | 156° |
| 2026-05-04 23:52 | 34.56419 | -67.96316 | 38222 ft | 429 kts | 156° |
| 2026-05-04 23:52 | 34.51643 | -67.91966 | 38223 ft | 429 kts | 156° |
| 2026-05-04 23:53 | 34.46867 | -67.87622 | 38222 ft | 429 kts | 156° |
| 2026-05-04 23:53 | 34.42087 | -67.83281 | 38157 ft | 429 kts | 156° |
| 2026-05-04 23:54 | 34.37317 | -67.78953 | 38214 ft | 428 kts | 157° |
| 2026-05-04 23:54 | 34.32551 | -67.74638 | 38218 ft | 428 kts | 157° |
| 2026-05-04 23:55 | 34.27773 | -67.70319 | 38220 ft | 429 kts | 157° |
| 2026-05-04 23:56 | 34.20607 | -67.63851 | 38218 ft | 429 kts | 157° |
| 2026-05-04 23:56 | 34.15941 | -67.59253 | 38216 ft | 443 kts | 148° |
| 2026-05-04 23:56 | 34.13833 | -67.56470 | 38216 ft | 455 kts | 142° |
| 2026-05-04 23:57 | 34.11943 | -67.53349 | 38166 ft | 466 kts | 135° |
| 2026-05-04 23:57 | 34.08756 | -67.46420 | 38215 ft | 474 kts | 130° |
| 2026-05-04 23:58 | 34.05638 | -67.39412 | 38217 ft | 474 kts | 130° |
| 2026-05-04 23:58 | 34.02504 | -67.32424 | 38150 ft | 474 kts | 130° |
| 2026-05-04 23:58 | 34.00931 | -67.28926 | 37881 ft | 474 kts | 131° |
| 2026-05-04 23:59 | 33.99364 | -67.25442 | 37624 ft | 473 kts | 131° |
| 2026-05-04 23:59 | 33.97796 | -67.21960 | 37364 ft | 473 kts | 131° |
| 2026-05-04 23:59 | 33.96228 | -67.18478 | 37065 ft | 471 kts | 131° |
| 2026-05-04 23:59 | 33.94670 | -67.15023 | 36811 ft | 469 kts | 131° |
| 2026-05-05 00:00 | 33.93108 | -67.11570 | 36561 ft | 471 kts | 131° |
| 2026-05-05 00:00 | 33.92067 | -67.09273 | 36384 ft | 472 kts | 131° |
| 2026-05-05 00:00 | 33.89963 | -67.04632 | 36068 ft | 472 kts | 131° |
| 2026-05-05 00:00 | 33.88388 | -67.01156 | 35822 ft | 473 kts | 131° |
| 2026-05-05 00:01 | 33.86815 | -66.97688 | 35585 ft | 473 kts | 131° |
| 2026-05-05 00:01 | 33.85237 | -66.94212 | 35345 ft | 474 kts | 131° |
| 2026-05-05 00:01 | 33.83655 | -66.90732 | 35108 ft | 474 kts | 131° |
| 2026-05-05 00:01 | 33.82072 | -66.87250 | 34841 ft | 475 kts | 131° |
| 2026-05-05 00:02 | 33.80486 | -66.83768 | 34604 ft | 475 kts | 131° |
| 2026-05-05 00:02 | 33.78894 | -66.80276 | 34380 ft | 476 kts | 131° |
| 2026-05-05 00:02 | 33.77303 | -66.76791 | 34150 ft | 477 kts | 131° |
| 2026-05-05 00:02 | 33.75707 | -66.73296 | 33867 ft | 477 kts | 131° |
| 2026-05-05 00:03 | 33.74110 | -66.69802 | 33601 ft | 477 kts | 131° |
| 2026-05-05 00:03 | 33.72508 | -66.66304 | 33342 ft | 478 kts | 130° |
| 2026-05-05 00:03 | 33.70926 | -66.62851 | 33084 ft | 478 kts | 130° |
| 2026-05-05 00:03 | 33.69320 | -66.59351 | 32821 ft | 479 kts | 130° |
| 2026-05-05 00:04 | 33.67713 | -66.55850 | 32538 ft | 479 kts | 130° |
| 2026-05-05 00:04 | 33.66106 | -66.52353 | 32291 ft | 479 kts | 130° |
| 2026-05-05 00:04 | 33.64496 | -66.48854 | 32037 ft | 479 kts | 130° |
| 2026-05-05 00:04 | 33.62884 | -66.45353 | 31786 ft | 479 kts | 130° |
| 2026-05-05 00:05 | 33.61269 | -66.41850 | 31545 ft | 480 kts | 130° |
| 2026-05-05 00:05 | 33.59655 | -66.38353 | 31303 ft | 480 kts | 130° |
| 2026-05-05 00:05 | 33.58036 | -66.34848 | 31063 ft | 480 kts | 130° |
| 2026-05-05 00:05 | 33.56415 | -66.31342 | 30825 ft | 480 kts | 129° |
| 2026-05-05 00:06 | 33.54804 | -66.27858 | 30599 ft | 478 kts | 129° |
| 2026-05-05 00:06 | 33.53195 | -66.24383 | 30326 ft | 476 kts | 129° |
| 2026-05-05 00:06 | 33.51596 | -66.20934 | 30059 ft | 470 kts | 129° |
| 2026-05-05 00:06 | 33.50013 | -66.17523 | 29785 ft | 469 kts | 129° |
| 2026-05-05 00:07 | 33.48424 | -66.14109 | 29508 ft | 469 kts | 129° |
| 2026-05-05 00:07 | 33.46838 | -66.10701 | 29243 ft | 468 kts | 128° |
| 2026-05-05 00:07 | 33.45253 | -66.07297 | 28972 ft | 467 kts | 128° |
| 2026-05-05 00:07 | 33.43673 | -66.03905 | 28705 ft | 466 kts | 128° |
| 2026-05-05 00:08 | 33.42097 | -66.00525 | 28447 ft | 465 kts | 128° |
| 2026-05-05 00:08 | 33.40519 | -65.97144 | 28186 ft | 464 kts | 128° |
| 2026-05-05 00:08 | 33.38944 | -65.93773 | 27929 ft | 464 kts | 128° |
| 2026-05-05 00:08 | 33.37368 | -65.90411 | 27648 ft | 466 kts | 128° |
| 2026-05-05 00:09 | 33.35767 | -65.87016 | 27394 ft | 467 kts | 128° |
| 2026-05-05 00:09 | 33.34176 | -65.83639 | 27144 ft | 465 kts | 128° |
| 2026-05-05 00:09 | 33.32594 | -65.80279 | 26904 ft | 464 kts | 128° |
| 2026-05-05 00:09 | 33.31008 | -65.76918 | 26652 ft | 463 kts | 128° |
| 2026-05-05 00:10 | 33.29425 | -65.73567 | 26404 ft | 463 kts | 128° |
| 2026-05-05 00:10 | 33.27843 | -65.70220 | 26163 ft | 462 kts | 128° |
| 2026-05-05 00:10 | 33.26259 | -65.66875 | 25595 ft | 465 kts | 128° |
| 2026-05-05 00:10 | 33.24654 | -65.63494 | 24736 ft | 471 kts | 127° |
| 2026-05-05 00:11 | 33.23019 | -65.60056 | 23814 ft | 478 kts | 127° |
| 2026-05-05 00:11 | 33.21399 | -65.56634 | 23354 ft | 467 kts | 127° |
| 2026-05-05 00:11 | 33.19817 | -65.53288 | 22744 ft | 461 kts | 127° |
| 2026-05-05 00:11 | 33.18243 | -65.49972 | 22038 ft | 457 kts | 126° |
| 2026-05-05 00:12 | 33.16674 | -65.46678 | 21368 ft | 454 kts | 126° |
| 2026-05-05 00:12 | 33.15121 | -65.43423 | 20720 ft | 450 kts | 126° |
| 2026-05-05 00:12 | 33.13579 | -65.40192 | 20084 ft | 446 kts | 125° |
| 2026-05-05 00:12 | 33.12051 | -65.36993 | 19446 ft | 443 kts | 125° |
| 2026-05-05 00:13 | 33.10531 | -65.33814 | 18848 ft | 439 kts | 124° |
| 2026-05-05 00:13 | 33.09023 | -65.30662 | 18209 ft | 435 kts | 124° |
| 2026-05-05 00:13 | 33.07491 | -65.27575 | 17422 ft | 431 kts | 131° |
| 2026-05-05 00:13 | 33.05478 | -65.25002 | 16705 ft | 417 kts | 147° |
| 2026-05-05 00:14 | 33.03051 | -65.23259 | 16100 ft | 401 kts | 163° |
| 2026-05-05 00:14 | 33.00452 | -65.22148 | 15454 ft | 395 kts | 167° |
| 2026-05-05 00:14 | 32.97850 | -65.21137 | 14845 ft | 391 kts | 167° |
| 2026-05-05 00:14 | 32.95273 | -65.20143 | 14247 ft | 389 kts | 166° |
| 2026-05-05 00:15 | 32.92717 | -65.19139 | 13630 ft | 386 kts | 165° |
| 2026-05-05 00:15 | 32.90182 | -65.18126 | 12978 ft | 383 kts | 165° |
| 2026-05-05 00:15 | 32.87674 | -65.17111 | 12402 ft | 379 kts | 165° |
| 2026-05-05 00:15 | 32.85196 | -65.16105 | 11827 ft | 375 kts | 165° |
| 2026-05-05 00:16 | 32.82769 | -65.15119 | 11261 ft | 372 kts | 165° |
| 2026-05-05 00:16 | 32.80333 | -65.14129 | 10710 ft | 368 kts | 165° |
| 2026-05-05 00:16 | 32.77951 | -65.13160 | 10496 ft | 355 kts | 165° |
| 2026-05-05 00:16 | 32.75667 | -65.12229 | 10355 ft | 340 kts | 165° |
| 2026-05-05 00:17 | 32.73471 | -65.11334 | 10227 ft | 326 kts | 165° |
| 2026-05-05 00:17 | 32.71369 | -65.10480 | 10109 ft | 313 kts | 165° |
| 2026-05-05 00:17 | 32.69350 | -65.09660 | 9929 ft | 302 kts | 166° |
| 2026-05-05 00:17 | 32.67372 | -65.08863 | 9522 ft | 299 kts | 165° |
| 2026-05-05 00:18 | 32.65405 | -65.08072 | 9123 ft | 297 kts | 165° |
| 2026-05-05 00:18 | 32.63454 | -65.07288 | 8723 ft | 295 kts | 165° |
| 2026-05-05 00:18 | 32.61523 | -65.06510 | 8355 ft | 292 kts | 164° |
| 2026-05-05 00:18 | 32.59608 | -65.05738 | 7966 ft | 290 kts | 164° |
| 2026-05-05 00:19 | 32.57703 | -65.04970 | 7601 ft | 287 kts | 164° |
| 2026-05-05 00:19 | 32.55817 | -65.04210 | 7223 ft | 285 kts | 164° |
| 2026-05-05 00:19 | 32.53974 | -65.03466 | 7069 ft | 274 kts | 164° |
| 2026-05-05 00:19 | 32.52208 | -65.02751 | 6971 ft | 262 kts | 164° |
| 2026-05-05 00:20 | 32.50524 | -65.02069 | 6877 ft | 250 kts | 164° |
| 2026-05-05 00:20 | 32.48912 | -65.01418 | 6765 ft | 239 kts | 164° |
| 2026-05-05 00:20 | 32.47353 | -65.00791 | 6517 ft | 236 kts | 164° |
| 2026-05-05 00:20 | 32.45801 | -65.00169 | 6216 ft | 235 kts | 164° |
| 2026-05-05 00:21 | 32.44248 | -64.99548 | 5856 ft | 237 kts | 164° |
| 2026-05-05 00:21 | 32.42725 | -64.98887 | 5550 ft | 237 kts | 152° |
| 2026-05-05 00:21 | 32.41521 | -64.97551 | 5177 ft | 237 kts | 120° |
| 2026-05-05 00:21 | 32.40992 | -64.95712 | 4847 ft | 238 kts | 102° |
| 2026-05-05 00:22 | 32.40703 | -64.93790 | 4584 ft | 235 kts | 99° |
| 2026-05-05 00:22 | 32.40453 | -64.91898 | 4357 ft | 231 kts | 98° |
| 2026-05-05 00:22 | 32.40189 | -64.90039 | 4115 ft | 227 kts | 99° |
| 2026-05-05 00:22 | 32.39907 | -64.88223 | 3879 ft | 224 kts | 98° |
| 2026-05-05 00:23 | 32.39609 | -64.86416 | 3595 ft | 223 kts | 99° |
| 2026-05-05 00:23 | 32.39304 | -64.84626 | 3390 ft | 220 kts | 99° |
| 2026-05-05 00:23 | 32.38999 | -64.82856 | 3101 ft | 219 kts | 99° |
| 2026-05-05 00:23 | 32.38699 | -64.81118 | 2853 ft | 217 kts | 99° |
| 2026-05-05 00:24 | 32.38395 | -64.79353 | 2577 ft | 215 kts | 99° |
| 2026-05-05 00:24 | 32.38096 | -64.77616 | 2313 ft | 215 kts | 100° |
| 2026-05-05 00:24 | 32.37804 | -64.75911 | 2113 ft | 202 kts | 101° |
| 2026-05-05 00:24 | 32.37514 | -64.74364 | 1838 ft | 187 kts | 105° |
| 2026-05-05 00:25 | 32.37163 | -64.72929 | 1438 ft | 179 kts | 102° |
| 2026-05-05 00:25 | 32.36897 | -64.71527 | 1015 ft | 170 kts | 103° |
| 2026-05-05 00:25 | 32.36757 | -64.70128 | 387 ft | 179 kts | 93° |
| 2026-05-05 00:25 | 32.36558 | -64.68707 | 38 ft | 162 kts | 102° |
| 2026-05-05 00:26 | 32.36380 | -64.67642 | 3 ft | 87 kts | 101° |
| 2026-05-05 00:26 | 32.36310 | -64.67206 | 4 ft | 23 kts | 100° |
| 2026-05-05 00:26 | 32.36304 | -64.67170 | 5 ft | 0 kts | 100° |